sensor_id;sensor_type;location;lat;lon;timestamp;pressure;altitude;pressure_sealevel;temperature
49557;BMP280;35462;45.048;7.666;2023-11-21T00:00:01;98306.78;;;12.55
49557;BMP280;35462;45.048;7.666;2023-11-21T00:15:21;98286.13;;;12.34
49557;BMP280;35462;45.048;7.666;2023-11-21T00:30:41;98260.38;;;12.06
49557;BMP280;35462;45.048;7.666;2023-11-21T00:46:04;98252.38;;;12.35
49557;BMP280;35462;45.048;7.666;2023-11-21T01:01:24;98240.16;;;12.12
49557;BMP280;35462;45.048;7.666;2023-11-21T01:16:43;98249.19;;;12.27
49557;BMP280;35462;45.048;7.666;2023-11-21T01:32:05;98242.63;;;12.44
49557;BMP280;35462;45.048;7.666;2023-11-21T01:47:27;98247.44;;;12.49
49557;BMP280;35462;45.048;7.666;2023-11-21T02:02:48;98253.19;;;12.19
49557;BMP280;35462;45.048;7.666;2023-11-21T02:18:08;98245.91;;;12.36
49557;BMP280;35462;45.048;7.666;2023-11-21T02:33:29;98240.16;;;12.25
49557;BMP280;35462;45.048;7.666;2023-11-21T02:48:48;98224.91;;;12.29
49557;BMP280;35462;45.048;7.666;2023-11-21T03:04:10;98223.63;;;11.92
49557;BMP280;35462;45.048;7.666;2023-11-21T03:19:30;98219.31;;;11.98
49557;BMP280;35462;45.048;7.666;2023-11-21T03:34:57;98199.81;;;12.17
49557;BMP280;35462;45.048;7.666;2023-11-21T03:50:19;98205.88;;;12.30
49557;BMP280;35462;45.048;7.666;2023-11-21T04:05:39;98196.97;;;12.37
49557;BMP280;35462;45.048;7.666;2023-11-21T04:20:58;98229.75;;;12.18
49557;BMP280;35462;45.048;7.666;2023-11-21T04:36:18;98209.31;;;11.90
49557;BMP280;35462;45.048;7.666;2023-11-21T04:51:39;98225.06;;;11.97
49557;BMP280;35462;45.048;7.666;2023-11-21T05:06:58;98234.59;;;11.66
49557;BMP280;35462;45.048;7.666;2023-11-21T05:22:19;98241.19;;;11.62
49557;BMP280;35462;45.048;7.666;2023-11-21T05:37:39;98240.91;;;11.56
49557;BMP280;35462;45.048;7.666;2023-11-21T05:52:59;98226.16;;;11.55
49557;BMP280;35462;45.048;7.666;2023-11-21T06:08:20;98212.13;;;11.70
49557;BMP280;35462;45.048;7.666;2023-11-21T06:23:40;98208.03;;;11.82
49557;BMP280;35462;45.048;7.666;2023-11-21T06:39:00;98194.03;;;11.81
49557;BMP280;35462;45.048;7.666;2023-11-21T06:54:20;98221.03;;;12.05
49557;BMP280;35462;45.048;7.666;2023-11-21T07:09:39;98240.16;;;12.25
49557;BMP280;35462;45.048;7.666;2023-11-21T07:25:02;98233.47;;;12.33
49557;BMP280;35462;45.048;7.666;2023-11-21T07:40:22;98225.44;;;12.36
49557;BMP280;35462;45.048;7.666;2023-11-21T07:55:41;98208.94;;;12.54
49557;BMP280;35462;45.048;7.666;2023-11-21T08:11:02;98178.00;;;12.72
49557;BMP280;35462;45.048;7.666;2023-11-21T08:26:22;98203.50;;;12.82
49557;BMP280;35462;45.048;7.666;2023-11-21T08:41:42;98187.88;;;12.96
49557;BMP280;35462;45.048;7.666;2023-11-21T08:57:02;98150.19;;;13.10
49557;BMP280;35462;45.048;7.666;2023-11-21T09:12:22;98154.53;;;13.38
49557;BMP280;35462;45.048;7.666;2023-11-21T09:27:44;98149.13;;;13.29
49557;BMP280;35462;45.048;7.666;2023-11-21T09:43:07;98169.22;;;13.30
49557;BMP280;35462;45.048;7.666;2023-11-21T09:58:27;98142.66;;;13.82
49557;BMP280;35462;45.048;7.666;2023-11-21T10:13:49;98125.09;;;14.33
49557;BMP280;35462;45.048;7.666;2023-11-21T10:29:13;98092.19;;;14.09
49557;BMP280;35462;45.048;7.666;2023-11-21T10:44:36;98076.81;;;14.04
49557;BMP280;35462;45.048;7.666;2023-11-21T10:59:55;98050.19;;;14.04
49557;BMP280;35462;45.048;7.666;2023-11-21T11:15:16;98021.50;;;14.17
49557;BMP280;35462;45.048;7.666;2023-11-21T11:46:03;97992.81;;;14.47
49557;BMP280;35462;45.048;7.666;2023-11-21T12:01:24;97968.78;;;14.65
49557;BMP280;35462;45.048;7.666;2023-11-21T12:16:44;97970.75;;;14.65
49557;BMP280;35462;45.048;7.666;2023-11-21T12:32:07;97964.03;;;14.78
49557;BMP280;35462;45.048;7.666;2023-11-21T12:47:27;97961.66;;;14.80
49557;BMP280;35462;45.048;7.666;2023-11-21T13:02:46;97953.66;;;14.89
49557;BMP280;35462;45.048;7.666;2023-11-21T13:18:07;97965.53;;;14.79
49557;BMP280;35462;45.048;7.666;2023-11-21T13:33:30;97963.78;;;14.76
49557;BMP280;35462;45.048;7.666;2023-11-21T13:48:52;97963.47;;;14.65
49557;BMP280;35462;45.048;7.666;2023-11-21T14:04:15;97969.09;;;14.67
49557;BMP280;35462;45.048;7.666;2023-11-21T14:19:54;97982.72;;;14.87
49557;BMP280;35462;45.048;7.666;2023-11-21T14:35:15;97991.25;;;14.82
49557;BMP280;35462;45.048;7.666;2023-11-21T14:50:36;98005.06;;;14.72
49557;BMP280;35462;45.048;7.666;2023-11-21T15:06:05;98014.72;;;14.69
49557;BMP280;35462;45.048;7.666;2023-11-21T15:21:44;98030.41;;;14.58
49557;BMP280;35462;45.048;7.666;2023-11-21T15:37:06;98047.56;;;14.31
49557;BMP280;35462;45.048;7.666;2023-11-21T15:52:29;98068.97;;;14.09
49557;BMP280;35462;45.048;7.666;2023-11-21T16:07:48;98081.38;;;14.03
49557;BMP280;35462;45.048;7.666;2023-11-21T16:23:09;98101.31;;;13.99
49557;BMP280;35462;45.048;7.666;2023-11-21T16:38:28;98130.88;;;13.92
49557;BMP280;35462;45.048;7.666;2023-11-21T16:53:47;98157.28;;;13.77
49557;BMP280;35462;45.048;7.666;2023-11-21T17:09:07;98183.41;;;13.70
49557;BMP280;35462;45.048;7.666;2023-11-21T17:24:29;98203.88;;;13.60
49557;BMP280;35462;45.048;7.666;2023-11-21T17:39:48;98231.97;;;13.61
49557;BMP280;35462;45.048;7.666;2023-11-21T17:55:08;98253.75;;;13.69
49557;BMP280;35462;45.048;7.666;2023-11-21T18:10:27;98288.50;;;13.53
49557;BMP280;35462;45.048;7.666;2023-11-21T18:25:47;98291.78;;;13.57
49557;BMP280;35462;45.048;7.666;2023-11-21T18:41:06;98300.63;;;13.54
49557;BMP280;35462;45.048;7.666;2023-11-21T18:56:26;98326.41;;;13.32
49557;BMP280;35462;45.048;7.666;2023-11-21T19:11:48;98347.19;;;13.12
49557;BMP280;35462;45.048;7.666;2023-11-21T19:27:08;98367.72;;;12.99
49557;BMP280;35462;45.048;7.666;2023-11-21T19:42:27;98388.72;;;12.81
49557;BMP280;35462;45.048;7.666;2023-11-21T19:57:48;98386.84;;;12.69
49557;BMP280;35462;45.048;7.666;2023-11-21T20:13:08;98412.00;;;12.37
49557;BMP280;35462;45.048;7.666;2023-11-21T20:28:31;98424.50;;;12.24
49557;BMP280;35462;45.048;7.666;2023-11-21T20:43:50;98429.22;;;12.16
49557;BMP280;35462;45.048;7.666;2023-11-21T20:59:11;98442.44;;;12.04
49557;BMP280;35462;45.048;7.666;2023-11-21T21:14:31;98460.69;;;12.02
49557;BMP280;35462;45.048;7.666;2023-11-21T21:29:51;98484.06;;;11.91
49557;BMP280;35462;45.048;7.666;2023-11-21T21:45:11;98489.97;;;11.82
49557;BMP280;35462;45.048;7.666;2023-11-21T22:00:33;98508.41;;;11.70
49557;BMP280;35462;45.048;7.666;2023-11-21T22:15:53;98512.38;;;11.62
49557;BMP280;35462;45.048;7.666;2023-11-21T22:31:12;98516.28;;;11.58
49557;BMP280;35462;45.048;7.666;2023-11-21T22:46:32;98517.00;;;11.58
49557;BMP280;35462;45.048;7.666;2023-11-21T23:01:51;98538.84;;;11.46
49557;BMP280;35462;45.048;7.666;2023-11-21T23:17:12;98522.91;;;11.30
49557;BMP280;35462;45.048;7.666;2023-11-21T23:32:32;98520.59;;;11.32
49557;BMP280;35462;45.048;7.666;2023-11-21T23:47:52;98499.00;;;11.14
